Time;durP1;ratioP1;P1;durP2;ratioP2;P2;SDS_P1;SDS_P2;PMS_P1;PMS_P2;Temp;Humidity;BMP_temperature;BMP_pressure;BME280_temperature;BME280_humidity;BME280_pressure;Samples;Min_cycle;Max_cycle;Signal;HPM_P1;HPM_P2
2023/12/30 00:01:31;;;;;;;12.20;7.80;;;6.60;99.90;;;;;;4900631;29;20040;-76
2023/12/30 00:03:56;;;;;;;11.48;6.90;;;6.50;99.90;;;;;;4900087;29;20031;-75
2023/12/30 00:06:22;;;;;;;13.60;6.40;;;6.50;99.90;;;;;;4900338;29;20043;-75
2023/12/30 00:08:48;;;;;;;11.95;6.40;;;6.50;99.90;;;;;;4901251;29;20042;-75
2023/12/30 00:11:14;;;;;;;11.57;7.78;;;6.40;99.90;;;;;;4901023;29;20048;-74
2023/12/30 00:13:40;;;;;;;12.70;7.57;;;6.30;99.90;;;;;;4900282;29;20399;-75
2023/12/30 00:16:06;;;;;;;13.40;7.13;;;6.30;99.90;;;;;;4901388;29;20027;-75
2023/12/30 00:18:32;;;;;;;11.75;6.28;;;6.30;99.90;;;;;;4905660;29;20031;-75
2023/12/30 00:20:58;;;;;;;12.10;6.88;;;6.40;99.90;;;;;;4905280;29;20052;-75
2023/12/30 00:23:24;;;;;;;13.57;7.15;;;6.50;99.90;;;;;;4905459;29;20668;-75
2023/12/30 00:25:49;;;;;;;12.05;7.28;;;6.50;99.90;;;;;;4905058;29;20032;-75
2023/12/30 00:28:15;;;;;;;13.80;7.15;;;6.50;99.90;;;;;;4904767;29;20028;-76
2023/12/30 00:30:41;;;;;;;13.95;7.45;;;6.50;99.90;;;;;;4905422;29;20044;-75
2023/12/30 00:33:06;;;;;;;10.43;6.25;;;6.50;99.90;;;;;;4904948;29;20032;-75
2023/12/30 00:35:32;;;;;;;10.85;5.68;;;6.50;99.90;;;;;;4905117;29;20012;-75
2023/12/30 00:37:58;;;;;;;10.63;5.72;;;6.50;99.90;;;;;;4904788;29;20028;-75
2023/12/30 00:40:23;;;;;;;8.77;6.22;;;6.40;99.90;;;;;;4904879;29;20040;-75
2023/12/30 00:42:49;;;;;;;9.35;6.30;;;6.50;99.90;;;;;;4904534;29;20665;-75
2023/12/30 00:45:15;;;;;;;11.70;6.72;;;6.50;99.90;;;;;;4904242;29;20387;-75
2023/12/30 00:47:41;;;;;;;14.05;6.95;;;6.40;99.90;;;;;;4904970;29;20033;-75
2023/12/30 00:50:07;;;;;;;13.55;6.28;;;6.30;99.90;;;;;;4905025;29;20036;-75
2023/12/30 00:52:32;;;;;;;12.00;6.10;;;6.30;99.90;;;;;;4904832;29;20028;-75
2023/12/30 00:54:58;;;;;;;11.93;6.53;;;6.30;99.90;;;;;;4904789;29;21126;-76
2023/12/30 00:57:24;;;;;;;12.30;6.15;;;6.30;99.90;;;;;;4904191;29;20026;-75
2023/12/30 00:59:49;;;;;;;9.15;6.10;;;6.20;99.90;;;;;;4904441;29;20031;-75
2023/12/30 01:02:15;;;;;;;11.23;6.10;;;6.30;99.90;;;;;;4904514;29;20024;-75
2023/12/30 01:04:40;;;;;;;10.00;6.35;;;6.20;99.90;;;;;;4904431;29;20039;-76
2023/12/30 01:07:06;;;;;;;12.13;6.05;;;6.20;99.90;;;;;;4904726;29;20068;-75
2023/12/30 01:09:32;;;;;;;11.40;7.18;;;6.20;99.90;;;;;;4904492;29;20115;-76
2023/12/30 01:11:57;;;;;;;9.88;6.60;;;6.20;99.90;;;;;;4904247;29;20080;-75
2023/12/30 01:14:23;;;;;;;12.07;7.57;;;6.20;99.90;;;;;;4904144;29;20033;-75
2023/12/30 01:16:49;;;;;;;9.55;6.53;;;6.20;99.90;;;;;;4904208;29;20047;-76
2023/12/30 01:19:14;;;;;;;11.13;6.93;;;6.20;99.90;;;;;;4904529;29;20032;-75
2023/12/30 01:21:40;;;;;;;10.05;7.07;;;6.20;99.90;;;;;;4904295;29;20075;-75
2023/12/30 01:24:06;;;;;;;9.50;5.95;;;6.30;99.90;;;;;;4904114;29;20439;-75
2023/12/30 01:26:31;;;;;;;11.07;6.93;;;6.40;99.90;;;;;;4904287;29;20036;-75
2023/12/30 01:28:57;;;;;;;10.75;5.88;;;6.40;99.90;;;;;;4904183;29;20478;-75
2023/12/30 01:31:23;;;;;;;11.10;7.18;;;6.50;99.90;;;;;;4904434;29;20131;-74
2023/12/30 01:33:48;;;;;;;10.30;5.65;;;6.50;99.90;;;;;;4904199;29;20032;-75
2023/12/30 01:36:14;;;;;;;8.82;5.13;;;6.50;99.90;;;;;;4904023;29;20088;-75
2023/12/30 01:38:41;;;;;;;12.15;5.95;;;6.50;99.90;;;;;;4904363;29;20028;-75
2023/12/30 01:41:07;;;;;;;10.70;6.03;;;6.40;99.90;;;;;;4903965;29;20120;-76
2023/12/30 01:43:33;;;;;;;11.15;6.03;;;6.40;99.90;;;;;;4904402;29;20020;-74
2023/12/30 01:46:03;;;;;;;11.27;5.82;;;6.40;99.90;;;;;;4904249;29;20111;-75
2023/12/30 01:48:29;;;;;;;9.20;5.75;;;6.50;99.90;;;;;;4904219;29;20108;-75
2023/12/30 01:50:59;;;;;;;12.23;6.72;;;6.50;99.90;;;;;;4903701;29;20095;-75
2023/12/30 01:53:26;;;;;;;12.25;6.18;;;6.50;99.90;;;;;;4903716;29;20036;-75
2023/12/30 01:55:52;;;;;;;15.00;7.32;;;6.40;99.90;;;;;;4904014;29;20032;-76
2023/12/30 01:58:19;;;;;;;11.63;6.55;;;6.30;99.90;;;;;;4903955;29;20044;-75
2023/12/30 02:00:51;;;;;;;16.30;6.72;;;6.40;99.90;;;;;;4903640;29;20055;-75
2023/12/30 02:03:17;;;;;;;12.85;5.95;;;6.40;99.90;;;;;;4903804;29;20036;-75
2023/12/30 02:05:45;;;;;;;16.05;6.80;;;6.40;99.90;;;;;;4903655;29;20028;-75
2023/12/30 02:08:12;;;;;;;13.90;6.85;;;6.20;99.90;;;;;;4903770;29;20036;-75
2023/12/30 02:10:38;;;;;;;10.85;7.22;;;6.10;99.90;;;;;;4904194;29;20458;-75
2023/12/30 02:13:03;;;;;;;11.15;6.75;;;6.10;99.90;;;;;;4903908;29;20071;-75
2023/12/30 02:15:29;;;;;;;12.20;7.25;;;6.10;99.90;;;;;;4903602;29;20060;-75
2023/12/30 02:17:56;;;;;;;12.55;6.63;;;6.20;99.90;;;;;;4904139;29;20471;-76
2023/12/30 02:20:22;;;;;;;8.20;5.68;;;6.30;99.90;;;;;;4903562;29;20056;-75
2023/12/30 02:22:49;;;;;;;9.68;5.45;;;6.30;99.90;;;;;;4903506;29;20040;-76
2023/12/30 02:25:15;;;;;;;12.88;6.30;;;6.20;99.90;;;;;;4903759;29;20040;-75
2023/12/30 02:27:45;;;;;;;11.32;6.32;;;6.20;99.90;;;;;;4906069;29;20115;-75
2023/12/30 02:30:14;;;;;;;12.68;7.00;;;6.10;99.90;;;;;;4907150;29;20064;-75
2023/12/30 02:32:41;;;;;;;10.82;6.35;;;6.10;99.90;;;;;;4907362;29;20166;-75
2023/12/30 02:35:07;;;;;;;10.80;6.30;;;6.10;99.90;;;;;;4907583;29;20040;-75
2023/12/30 02:37:33;;;;;;;12.13;6.03;;;6.10;99.90;;;;;;4907591;29;20032;-75
2023/12/30 02:39:58;;;;;;;9.10;5.72;;;6.00;99.90;;;;;;4907302;29;20034;-75
2023/12/30 02:42:24;;;;;;;12.35;6.38;;;6.00;99.90;;;;;;4907245;29;20024;-75
2023/12/30 02:44:51;;;;;;;10.68;6.70;;;5.90;99.90;;;;;;4907484;29;20032;-75
2023/12/30 02:47:17;;;;;;;12.70;6.43;;;5.70;99.90;;;;;;4907391;29;20043;-74
2023/12/30 02:49:44;;;;;;;13.50;5.88;;;5.70;99.90;;;;;;4906730;29;20036;-75
2023/12/30 02:52:10;;;;;;;10.63;6.20;;;5.60;99.90;;;;;;4907200;29;20160;-75
2023/12/30 02:54:36;;;;;;;11.30;6.20;;;5.60;99.90;;;;;;4907346;29;20115;-75
2023/12/30 02:57:06;;;;;;;8.45;5.57;;;5.70;99.90;;;;;;4906796;29;20398;-75
2023/12/30 02:59:32;;;;;;;10.30;5.80;;;5.50;99.90;;;;;;4906947;29;20083;-75
2023/12/30 03:01:57;;;;;;;11.38;5.88;;;5.60;99.90;;;;;;4907037;29;20032;-75
2023/12/30 03:04:23;;;;;;;12.95;6.55;;;5.50;99.90;;;;;;4906363;29;20036;-75
2023/12/30 03:06:49;;;;;;;9.90;6.25;;;5.50;99.90;;;;;;4907271;29;20024;-75
2023/12/30 03:09:14;;;;;;;10.25;6.15;;;5.50;99.90;;;;;;4906757;29;20483;-75
2023/12/30 03:11:40;;;;;;;11.27;5.63;;;5.40;99.90;;;;;;4906377;29;20546;-75
2023/12/30 03:14:06;;;;;;;10.52;5.75;;;5.40;99.90;;;;;;4906337;29;20395;-75
2023/12/30 03:16:32;;;;;;;10.00;5.85;;;5.40;99.90;;;;;;4906359;29;20040;-76
2023/12/30 03:18:58;;;;;;;13.80;7.10;;;5.40;99.90;;;;;;4906643;29;20443;-75
2023/12/30 03:21:24;;;;;;;13.00;8.45;;;5.40;99.90;;;;;;4905755;29;20098;-75
2023/12/30 03:23:50;;;;;;;8.50;5.60;;;5.30;99.90;;;;;;4906135;29;20602;-75
2023/12/30 03:26:16;;;;;;;8.35;5.30;;;5.30;99.90;;;;;;4906046;29;20069;-75
2023/12/30 03:28:43;;;;;;;7.70;4.72;;;5.30;99.90;;;;;;4906191;29;20118;-75
2023/12/30 03:31:27;;;;;;;9.40;5.43;;;5.40;99.90;;;;;;4905816;29;20047;-75
2023/12/30 03:33:53;;;;;;;6.82;4.88;;;5.30;99.90;;;;;;4906261;29;20036;-75
2023/12/30 03:36:19;;;;;;;9.70;5.78;;;5.20;99.90;;;;;;4906190;29;20040;-76
2023/12/30 03:38:48;;;;;;;9.85;5.45;;;5.20;99.90;;;;;;4905134;29;20035;-75
2023/12/30 03:41:14;;;;;;;9.13;6.07;;;5.30;99.90;;;;;;4906219;29;20071;-75
2023/12/30 03:43:40;;;;;;;10.30;6.32;;;5.40;99.90;;;;;;4906330;29;20067;-75
2023/12/30 03:46:05;;;;;;;12.60;6.45;;;5.10;99.90;;;;;;4905851;29;20456;-75
2023/12/30 03:48:32;;;;;;;9.23;5.68;;;5.10;99.90;;;;;;4906067;29;20032;-75
2023/12/30 03:50:57;;;;;;;9.27;4.47;;;5.00;99.90;;;;;;4905799;29;20049;-74
2023/12/30 03:53:23;;;;;;;10.02;4.80;;;5.00;99.90;;;;;;4905841;29;20509;-74
2023/12/30 03:55:49;;;;;;;8.85;4.80;;;4.90;99.90;;;;;;4905965;29;20390;-75
2023/12/30 03:58:14;;;;;;;9.70;5.70;;;5.00;99.90;;;;;;4905607;29;20542;-75
2023/12/30 04:00:40;;;;;;;10.05;4.82;;;5.00;99.90;;;;;;4905277;29;20036;-74
2023/12/30 04:03:05;;;;;;;14.15;5.63;;;5.10;99.90;;;;;;4901273;29;20028;-74
2023/12/30 04:05:31;;;;;;;11.40;5.53;;;5.20;99.90;;;;;;4898935;29;20032;-73
2023/12/30 04:07:57;;;;;;;9.68;5.45;;;5.20;99.90;;;;;;4899664;29;20043;-74
2023/12/30 04:10:22;;;;;;;10.35;5.45;;;5.20;99.90;;;;;;4899441;29;20047;-75
2023/12/30 04:12:48;;;;;;;8.90;5.43;;;5.40;99.90;;;;;;4899604;29;20047;-73
2023/12/30 04:15:14;;;;;;;12.50;5.68;;;5.50;99.90;;;;;;4899639;29;20043;-74
2023/12/30 04:17:39;;;;;;;7.70;4.95;;;5.40;99.90;;;;;;4897228;29;20503;-74
2023/12/30 04:20:05;;;;;;;7.20;4.75;;;5.30;99.90;;;;;;4897352;29;20064;-74
2023/12/30 04:22:31;;;;;;;8.25;5.32;;;5.30;99.90;;;;;;4897740;29;20036;-73
2023/12/30 04:24:57;;;;;;;10.82;5.47;;;5.20;99.90;;;;;;4900378;29;20048;-73
2023/12/30 04:27:23;;;;;;;11.73;5.65;;;5.10;99.90;;;;;;4900686;29;20040;-74
2023/12/30 04:29:49;;;;;;;7.85;4.72;;;5.20;99.90;;;;;;4900541;29;20024;-73
2023/12/30 04:32:14;;;;;;;7.55;4.65;;;5.20;99.90;;;;;;4901008;29;20031;-74
2023/12/30 04:34:40;;;;;;;8.88;5.63;;;5.20;99.90;;;;;;4900264;29;20502;-73
2023/12/30 04:37:06;;;;;;;10.63;6.00;;;5.20;99.90;;;;;;4900702;29;20056;-73
2023/12/30 04:39:31;;;;;;;11.93;6.07;;;5.40;99.90;;;;;;4900357;29;20028;-74
2023/12/30 04:41:57;;;;;;;8.90;5.65;;;5.40;99.90;;;;;;4900491;29;20032;-73
2023/12/30 04:44:23;;;;;;;8.73;5.30;;;5.50;99.90;;;;;;4897447;29;20036;-73
2023/12/30 04:46:48;;;;;;;11.05;5.88;;;5.60;99.90;;;;;;4896796;29;20028;-73
2023/12/30 04:49:14;;;;;;;8.95;5.82;;;5.50;99.90;;;;;;4898228;29;20048;-74
2023/12/30 04:51:40;;;;;;;9.90;5.60;;;5.50;99.90;;;;;;4899776;29;20036;-74
2023/12/30 04:54:05;;;;;;;14.63;6.07;;;5.50;99.90;;;;;;4899509;29;20036;-73
2023/12/30 04:56:31;;;;;;;12.40;6.30;;;5.60;99.90;;;;;;4899603;29;20043;-73
2023/12/30 04:58:57;;;;;;;13.43;5.43;;;5.80;99.90;;;;;;4899420;29;20931;-74
2023/12/30 05:01:23;;;;;;;11.07;4.85;;;5.80;99.90;;;;;;4899570;29;20130;-73
2023/12/30 05:03:50;;;;;;;9.00;5.68;;;5.80;99.90;;;;;;4899725;29;20040;-73
2023/12/30 05:06:21;;;;;;;11.73;6.30;;;5.70;99.90;;;;;;4899968;29;20064;-73
2023/12/30 05:08:50;;;;;;;9.48;6.13;;;5.70;99.90;;;;;;4899894;29;20124;-73
2023/12/30 05:11:15;;;;;;;8.88;6.20;;;5.60;99.90;;;;;;4899532;29;20040;-74
2023/12/30 05:13:43;;;;;;;10.52;5.93;;;5.50;99.90;;;;;;4899556;29;20431;-75
2023/12/30 05:16:09;;;;;;;9.65;5.43;;;5.40;99.90;;;;;;4900040;29;20028;-73
2023/12/30 05:18:34;;;;;;;8.20;4.70;;;5.50;99.90;;;;;;4899535;29;20043;-73
2023/12/30 05:21:00;;;;;;;9.15;5.50;;;5.50;99.90;;;;;;4898956;29;20127;-73
2023/12/30 05:23:26;;;;;;;8.90;5.55;;;5.60;99.90;;;;;;4899846;29;20481;-74
2023/12/30 05:25:51;;;;;;;9.18;5.70;;;5.60;99.90;;;;;;4900050;29;20302;-74
2023/12/30 05:28:17;;;;;;;11.55;5.85;;;5.50;99.90;;;;;;4899357;29;20087;-74
2023/12/30 05:30:43;;;;;;;9.13;5.88;;;5.40;99.90;;;;;;4898945;29;20047;-74
2023/12/30 05:33:08;;;;;;;8.95;5.25;;;5.40;99.90;;;;;;4898935;29;20035;-74
2023/12/30 05:35:38;;;;;;;8.77;5.38;;;5.50;99.90;;;;;;4899857;29;20115;-74
2023/12/30 05:38:03;;;;;;;11.05;5.10;;;5.60;99.90;;;;;;4899057;29;20131;-74
2023/12/30 05:40:30;;;;;;;10.77;5.25;;;5.50;99.90;;;;;;4896299;29;20032;-74
2023/12/30 05:42:56;;;;;;;7.72;5.30;;;5.30;99.90;;;;;;4895892;29;20054;-74
2023/12/30 05:45:21;;;;;;;9.43;5.45;;;5.20;99.90;;;;;;4896066;29;20040;-73
2023/12/30 05:47:47;;;;;;;7.85;4.70;;;5.40;99.90;;;;;;4896363;29;20042;-73
2023/12/30 05:50:13;;;;;;;8.32;5.35;;;5.60;99.90;;;;;;4896069;29;20048;-75
2023/12/30 05:52:39;;;;;;;11.50;6.03;;;5.50;99.90;;;;;;4898302;29;20032;-75
2023/12/30 05:55:05;;;;;;;9.35;5.32;;;5.50;99.90;;;;;;4899286;29;20032;-74
2023/12/30 05:57:31;;;;;;;26.48;13.38;;;5.30;99.90;;;;;;4899025;29;20080;-73
2023/12/30 05:59:56;;;;;;;50.25;26.25;;;5.30;99.90;;;;;;4899223;29;20135;-75
2023/12/30 06:02:22;;;;;;;37.90;19.58;;;5.10;99.90;;;;;;4898135;29;20423;-74
2023/12/30 06:04:48;;;;;;;34.63;19.17;;;4.90;99.90;;;;;;4899162;29;20505;-74
2023/12/30 06:07:14;;;;;;;21.55;12.10;;;4.80;99.90;;;;;;4899454;29;20032;-73
2023/12/30 06:09:41;;;;;;;9.30;6.00;;;4.60;99.90;;;;;;4899272;29;20034;-74
2023/12/30 06:12:08;;;;;;;9.38;6.32;;;4.60;99.90;;;;;;4898408;29;20071;-73
2023/12/30 06:14:35;;;;;;;10.32;6.00;;;4.70;99.90;;;;;;4898893;29;20132;-73
2023/12/30 06:17:00;;;;;;;11.25;5.28;;;4.80;99.90;;;;;;4897432;29;20052;-74
2023/12/30 06:19:26;;;;;;;9.52;5.40;;;5.00;99.90;;;;;;4895581;29;20104;-74
2023/12/30 06:21:52;;;;;;;7.63;4.22;;;5.00;99.90;;;;;;4895578;29;20139;-74
2023/12/30 06:24:17;;;;;;;9.30;4.93;;;5.00;99.90;;;;;;4898508;29;20043;-74
2023/12/30 06:26:44;;;;;;;8.65;4.75;;;4.90;99.90;;;;;;4898309;29;20219;-74
2023/12/30 06:29:10;;;;;;;13.43;6.20;;;4.90;99.90;;;;;;4899297;29;20039;-74
2023/12/30 06:31:41;;;;;;;8.85;5.40;;;5.00;99.90;;;;;;4898741;29;20396;-74
2023/12/30 06:34:06;;;;;;;8.02;4.90;;;4.90;99.90;;;;;;4898653;29;20032;-76
2023/12/30 06:36:32;;;;;;;11.13;4.70;;;4.80;99.90;;;;;;4898713;29;20035;-73
2023/12/30 06:38:58;;;;;;;8.43;4.90;;;4.80;99.90;;;;;;4898707;29;21898;-73
2023/12/30 06:41:24;;;;;;;6.68;4.20;;;4.80;99.90;;;;;;4898271;29;20036;-73
2023/12/30 06:43:49;;;;;;;8.52;4.80;;;4.70;99.90;;;;;;4898441;29;20064;-73
2023/12/30 06:46:19;;;;;;;8.07;4.75;;;4.40;99.90;;;;;;4898753;29;20056;-73
2023/12/30 06:48:45;;;;;;;8.95;5.15;;;4.20;99.90;;;;;;4898997;29;20403;-74
2023/12/30 06:51:10;;;;;;;9.98;5.40;;;4.30;99.90;;;;;;4898524;29;20044;-73
2023/12/30 06:53:37;;;;;;;11.13;5.60;;;4.50;99.90;;;;;;4898394;29;20032;-73
2023/12/30 06:56:09;;;;;;;8.60;5.00;;;4.60;99.90;;;;;;4898725;29;20383;-73
2023/12/30 06:58:35;;;;;;;8.82;4.95;;;4.60;99.90;;;;;;4897131;29;20206;-73
2023/12/30 07:01:01;;;;;;;11.45;5.70;;;4.60;99.90;;;;;;4895932;29;20036;-75
2023/12/30 07:03:26;;;;;;;8.98;5.25;;;4.60;99.90;;;;;;4895645;29;20032;-73
2023/12/30 07:05:52;;;;;;;8.10;5.38;;;4.50;99.90;;;;;;4895339;29;20036;-74
2023/12/30 07:08:18;;;;;;;9.43;5.47;;;4.50;99.90;;;;;;4895193;29;20337;-74
2023/12/30 07:10:44;;;;;;;8.55;5.13;;;4.60;99.90;;;;;;4894857;29;20124;-73
2023/12/30 07:13:09;;;;;;;8.60;5.25;;;4.60;99.90;;;;;;4896438;29;20123;-74
2023/12/30 07:15:35;;;;;;;7.35;4.50;;;4.50;99.90;;;;;;4899011;29;20328;-73
2023/12/30 07:18:01;;;;;;;8.60;4.55;;;4.40;99.90;;;;;;4898451;29;20439;-74
2023/12/30 07:20:27;;;;;;;8.85;5.18;;;4.20;99.90;;;;;;4898526;29;20048;-74
2023/12/30 07:22:53;;;;;;;7.57;4.75;;;4.40;99.90;;;;;;4898895;29;20056;-74
2023/12/30 07:25:19;;;;;;;8.27;4.93;;;4.70;99.90;;;;;;4898640;29;20595;-73
2023/12/30 07:27:45;;;;;;;6.53;4.15;;;4.80;99.90;;;;;;4900934;29;20024;-74
2023/12/30 07:30:11;;;;;;;9.68;5.20;;;4.80;99.90;;;;;;4901854;29;20028;-73
2023/12/30 07:32:37;;;;;;;8.98;5.03;;;4.90;99.90;;;;;;4901490;29;20653;-74
2023/12/30 07:35:05;;;;;;;9.45;4.65;;;5.00;99.90;;;;;;4901903;29;20099;-73
2023/12/30 07:37:32;;;;;;;6.65;3.97;;;4.90;99.90;;;;;;4901479;29;20035;-73
2023/12/30 07:39:58;;;;;;;9.68;4.65;;;4.90;99.90;;;;;;4902005;29;20052;-73
2023/12/30 07:42:24;;;;;;;9.30;5.30;;;4.90;99.90;;;;;;4901595;29;21173;-73
2023/12/30 07:44:51;;;;;;;7.95;4.10;;;4.90;99.90;;;;;;4901440;29;20032;-74
2023/12/30 07:47:17;;;;;;;8.43;5.03;;;5.00;99.90;;;;;;4901222;29;20055;-74
2023/12/30 07:49:43;;;;;;;7.40;4.82;;;4.80;99.90;;;;;;4901364;29;20107;-73
2023/12/30 07:52:08;;;;;;;7.65;4.97;;;4.80;99.90;;;;;;4901446;29;20627;-74
2023/12/30 07:54:34;;;;;;;9.15;5.75;;;4.70;99.90;;;;;;4901598;29;20035;-73
2023/12/30 07:56:59;;;;;;;10.60;6.50;;;4.70;99.90;;;;;;4901106;29;20083;-74
2023/12/30 07:59:25;;;;;;;9.32;5.50;;;4.70;99.90;;;;;;4901282;29;20388;-73
2023/12/30 08:01:51;;;;;;;8.38;5.40;;;4.60;99.90;;;;;;4900764;29;20475;-74
2023/12/30 08:04:17;;;;;;;7.47;4.53;;;4.50;99.90;;;;;;4901468;29;20040;-75
2023/12/30 08:06:43;;;;;;;7.35;4.82;;;4.30;99.90;;;;;;4900842;29;20390;-74
2023/12/30 08:09:11;;;;;;;10.10;4.38;;;4.60;99.90;;;;;;4900307;29;20035;-74
2023/12/30 08:11:36;;;;;;;9.50;5.68;;;4.60;99.90;;;;;;4900521;29;20038;-73
2023/12/30 08:14:02;;;;;;;8.45;5.65;;;4.80;99.90;;;;;;4900648;29;20398;-73
2023/12/30 08:16:28;;;;;;;11.00;6.10;;;4.80;99.90;;;;;;4901634;29;20244;-73
2023/12/30 08:18:54;;;;;;;10.98;6.05;;;4.70;99.90;;;;;;4900743;29;20032;-75
2023/12/30 08:21:19;;;;;;;9.85;5.22;;;4.70;99.90;;;;;;4901122;29;20119;-73
2023/12/30 08:23:45;;;;;;;9.73;5.80;;;4.60;99.90;;;;;;4900353;29;20107;-73
2023/12/30 08:26:11;;;;;;;10.48;6.47;;;4.40;99.90;;;;;;4899922;29;20032;-73
2023/12/30 08:28:36;;;;;;;11.77;5.80;;;4.30;99.90;;;;;;4900044;29;20036;-73
2023/12/30 08:31:02;;;;;;;8.73;5.40;;;4.30;99.90;;;;;;4900324;29;20522;-74
2023/12/30 08:33:28;;;;;;;8.00;5.07;;;4.40;99.90;;;;;;4883343;29;20044;-73
2023/12/30 08:35:53;;;;;;;7.03;4.38;;;4.40;99.90;;;;;;4900230;29;20163;-73
2023/12/30 08:38:19;;;;;;;6.90;4.10;;;4.40;99.90;;;;;;4900586;29;20115;-74
2023/12/30 08:40:45;;;;;;;11.13;5.38;;;4.30;99.90;;;;;;4900598;29;20043;-73
2023/12/30 08:43:12;;;;;;;9.07;4.75;;;4.20;99.90;;;;;;4900779;29;20071;-72
2023/12/30 08:45:38;;;;;;;9.38;5.03;;;4.20;99.90;;;;;;4899750;29;20095;-73
2023/12/30 08:48:04;;;;;;;8.07;5.10;;;4.30;99.90;;;;;;4900060;29;20123;-73
2023/12/30 08:50:31;;;;;;;8.88;5.25;;;4.20;99.90;;;;;;4900000;29;20566;-75
2023/12/30 08:52:56;;;;;;;7.32;4.85;;;4.30;99.90;;;;;;4899732;29;20036;-74
2023/12/30 08:55:22;;;;;;;7.60;4.05;;;4.50;99.90;;;;;;4900380;29;20025;-75
2023/12/30 08:57:48;;;;;;;8.05;4.93;;;4.60;99.90;;;;;;4900314;29;20157;-73
2023/12/30 09:00:15;;;;;;;11.23;7.22;;;4.50;99.90;;;;;;4900122;29;20036;-73
2023/12/30 09:02:46;;;;;;;12.82;6.55;;;4.30;99.90;;;;;;4899585;29;20079;-73
2023/12/30 09:05:21;;;;;;;9.15;5.85;;;4.40;99.90;;;;;;4900015;29;20406;-75
2023/12/30 09:07:48;;;;;;;11.10;6.45;;;4.30;99.90;;;;;;4899961;29;21424;-73
2023/12/30 09:10:18;;;;;;;10.60;6.57;;;4.40;99.90;;;;;;4900374;29;20035;-74
2023/12/30 09:12:47;;;;;;;9.27;5.60;;;4.40;99.90;;;;;;4899808;29;20158;-74
2023/12/30 09:15:12;;;;;;;13.18;6.60;;;4.40;99.90;;;;;;4900108;29;20493;-73
2023/12/30 09:17:38;;;;;;;8.65;5.82;;;4.40;99.90;;;;;;4899956;29;20036;-73
2023/12/30 09:20:04;;;;;;;11.00;6.18;;;4.60;99.90;;;;;;4899491;29;20083;-73
2023/12/30 09:22:30;;;;;;;10.15;6.28;;;4.70;99.90;;;;;;4899531;29;20036;-73
2023/12/30 09:24:56;;;;;;;11.85;6.68;;;4.60;99.90;;;;;;4899857;29;20043;-73
2023/12/30 09:27:22;;;;;;;9.77;5.97;;;4.60;99.90;;;;;;4899563;29;20028;-73
2023/12/30 09:29:48;;;;;;;9.93;6.43;;;4.70;99.90;;;;;;4899746;29;20125;-72
2023/12/30 09:32:14;;;;;;;9.40;6.45;;;4.80;99.90;;;;;;4899398;29;20147;-73
2023/12/30 09:34:39;;;;;;;8.35;5.93;;;4.70;99.90;;;;;;4899327;29;20490;-73
2023/12/30 09:37:05;;;;;;;10.90;7.28;;;4.40;99.90;;;;;;4899321;29;20043;-73
2023/12/30 09:39:31;;;;;;;12.10;6.28;;;4.60;99.90;;;;;;4896685;29;20044;-73
2023/12/30 09:41:56;;;;;;;9.60;6.15;;;4.40;99.90;;;;;;4896098;29;20039;-73
2023/12/30 09:44:25;;;;;;;12.85;6.10;;;4.60;99.90;;;;;;4896331;29;20047;-73
2023/12/30 09:46:52;;;;;;;9.95;6.18;;;4.70;99.90;;;;;;4899071;29;21143;-73
2023/12/30 09:49:19;;;;;;;10.05;6.47;;;4.70;99.90;;;;;;4899538;29;20044;-74
2023/12/30 09:51:44;;;;;;;9.50;6.13;;;4.70;99.90;;;;;;4899294;29;20067;-72
2023/12/30 09:54:10;;;;;;;13.63;6.68;;;4.80;99.90;;;;;;4899484;29;20044;-74
2023/12/30 09:56:36;;;;;;;10.32;6.72;;;4.80;99.90;;;;;;4899773;29;20036;-74
2023/12/30 09:59:03;;;;;;;11.43;7.00;;;4.90;99.90;;;;;;4899278;29;21297;-73
2023/12/30 10:01:30;;;;;;;10.75;6.82;;;4.90;99.90;;;;;;4897841;29;20526;-73
2023/12/30 10:03:56;;;;;;;9.57;5.50;;;4.90;99.90;;;;;;4895542;29;20047;-74
2023/12/30 10:06:23;;;;;;;8.93;5.80;;;5.00;99.90;;;;;;4895962;29;20032;-74
2023/12/30 10:08:49;;;;;;;8.98;5.57;;;4.90;99.90;;;;;;4896186;29;20032;-74
2023/12/30 10:11:16;;;;;;;9.30;6.18;;;4.90;99.90;;;;;;4895887;29;20043;-73
2023/12/30 10:13:41;;;;;;;13.65;6.45;;;4.90;99.90;;;;;;4897994;29;20028;-73
2023/12/30 10:16:08;;;;;;;14.73;9.55;;;4.90;99.90;;;;;;4899212;29;20028;-73
2023/12/30 10:18:35;;;;;;;14.80;10.07;;;4.80;99.90;;;;;;4899051;29;20123;-74
2023/12/30 10:21:03;;;;;;;16.10;10.95;;;4.70;99.90;;;;;;4898795;29;20288;-73
2023/12/30 10:23:31;;;;;;;11.68;8.48;;;4.70;99.90;;;;;;4899342;29;20032;-74
2023/12/30 10:25:57;;;;;;;13.13;8.38;;;4.70;99.90;;;;;;4898952;29;20028;-74
2023/12/30 10:28:23;;;;;;;10.93;7.78;;;4.70;99.90;;;;;;4898708;29;20039;-74
2023/12/30 10:31:02;;;;;;;12.57;8.30;;;4.60;99.90;;;;;;4897304;29;20040;-73
2023/12/30 10:33:28;;;;;;;10.75;6.50;;;4.70;99.90;;;;;;4895813;29;20484;-73
2023/12/30 10:35:55;;;;;;;11.00;6.63;;;4.60;99.90;;;;;;4895472;29;20391;-74
2023/12/30 10:38:22;;;;;;;10.95;6.57;;;4.50;99.90;;;;;;4895539;29;20032;-73
2023/12/30 10:40:50;;;;;;;10.25;6.28;;;4.50;99.90;;;;;;4895865;29;20039;-74
2023/12/30 10:43:15;;;;;;;9.68;6.25;;;4.60;99.90;;;;;;4895693;29;20383;-73
2023/12/30 10:45:41;;;;;;;10.20;5.88;;;4.80;99.90;;;;;;4895310;29;20036;-74
2023/12/30 10:48:07;;;;;;;10.68;6.50;;;4.80;99.90;;;;;;4896581;29;20031;-73
2023/12/30 10:50:36;;;;;;;8.50;5.35;;;4.80;99.90;;;;;;4898973;29;20040;-73
2023/12/30 10:53:07;;;;;;;8.75;5.07;;;5.00;99.90;;;;;;4898811;29;20032;-74
2023/12/30 10:55:34;;;;;;;10.05;5.30;;;5.10;99.90;;;;;;4899002;29;20611;-73
2023/12/30 10:58:06;;;;;;;8.02;5.38;;;5.30;99.90;;;;;;4899196;29;20260;-73
2023/12/30 11:00:36;;;;;;;8.35;5.47;;;5.50;99.90;;;;;;4898658;29;20032;-75
2023/12/30 11:03:05;;;;;;;11.75;6.57;;;5.70;99.90;;;;;;4899255;29;20147;-73
2023/12/30 11:05:43;;;;;;;8.88;6.32;;;5.90;99.90;;;;;;4899032;29;20052;-73
2023/12/30 11:08:10;;;;;;;10.93;6.32;;;6.00;99.90;;;;;;4899102;29;20091;-74
2023/12/30 11:10:35;;;;;;;12.25;6.97;;;6.10;99.90;;;;;;4902034;29;20248;-73
2023/12/30 11:13:01;;;;;;;10.68;5.82;;;6.20;99.90;;;;;;4901688;29;20032;-73
2023/12/30 11:15:28;;;;;;;10.45;6.82;;;6.30;99.90;;;;;;4902071;29;20034;-73
2023/12/30 11:17:56;;;;;;;13.02;8.13;;;6.30;99.90;;;;;;4901642;29;20115;-74
2023/12/30 11:20:28;;;;;;;14.65;9.85;;;6.40;99.90;;;;;;4900995;29;20060;-73
2023/12/30 11:22:56;;;;;;;18.10;9.15;;;6.50;99.90;;;;;;4901548;29;20374;-73
2023/12/30 11:25:22;;;;;;;14.07;8.68;;;6.60;99.90;;;;;;4901659;29;20047;-73
2023/12/30 11:27:51;;;;;;;13.43;7.85;;;6.70;99.90;;;;;;4901834;29;20414;-73
2023/12/30 11:30:18;;;;;;;12.15;6.93;;;6.70;99.90;;;;;;4901711;29;20399;-74
2023/12/30 11:32:45;;;;;;;10.90;6.13;;;6.90;99.90;;;;;;4901323;29;20028;-73
2023/12/30 11:35:13;;;;;;;10.68;6.07;;;7.00;99.90;;;;;;4901832;29;20028;-74
2023/12/30 11:37:43;;;;;;;23.73;12.73;;;7.10;99.90;;;;;;4901719;29;20025;-73
2023/12/30 11:40:13;;;;;;;17.48;9.48;;;7.20;99.90;;;;;;4901711;29;20222;-73
2023/12/30 11:42:39;;;;;;;14.23;8.90;;;7.30;99.90;;;;;;4900994;29;20068;-73
2023/12/30 11:45:05;;;;;;;11.20;6.82;;;7.30;99.90;;;;;;4900983;29;20539;-74
2023/12/30 11:47:31;;;;;;;11.70;6.93;;;7.30;99.90;;;;;;4901029;29;20036;-73
2023/12/30 11:50:04;;;;;;;13.45;8.32;;;7.40;99.90;;;;;;4901004;29;20376;-73
2023/12/30 11:52:30;;;;;;;10.63;6.90;;;7.60;99.90;;;;;;4900947;29;20047;-73
2023/12/30 11:54:55;;;;;;;11.07;5.88;;;7.70;99.90;;;;;;4901120;29;20036;-73
2023/12/30 11:57:21;;;;;;;14.25;6.78;;;7.70;99.90;;;;;;4901439;29;20065;-73
2023/12/30 11:59:47;;;;;;;8.95;6.18;;;7.90;99.90;;;;;;4899670;29;20565;-73
2023/12/30 12:02:13;;;;;;;12.77;6.28;;;7.90;99.90;;;;;;4901271;29;20032;-73
2023/12/30 12:04:39;;;;;;;10.77;5.78;;;8.00;99.90;;;;;;4901022;29;20103;-73
2023/12/30 12:07:05;;;;;;;9.73;5.60;;;7.90;99.90;;;;;;4901152;29;20047;-73
2023/12/30 12:09:31;;;;;;;8.60;5.32;;;7.90;99.90;;;;;;4901311;29;20036;-74
2023/12/30 12:11:57;;;;;;;8.45;4.97;;;7.80;99.90;;;;;;4900634;29;20051;-73
2023/12/30 12:14:24;;;;;;;11.73;5.53;;;7.80;99.90;;;;;;4899441;29;20035;-73
2023/12/30 12:16:50;;;;;;;11.70;6.05;;;8.10;99.90;;;;;;4897573;29;20035;-73
2023/12/30 12:19:16;;;;;;;9.75;6.00;;;8.20;99.90;;;;;;4897615;29;20088;-73
2023/12/30 12:21:43;;;;;;;8.73;5.13;;;8.40;99.90;;;;;;4896647;29;20067;-73
2023/12/30 12:24:09;;;;;;;11.05;6.75;;;8.50;99.90;;;;;;4899697;29;20036;-74
2023/12/30 12:26:36;;;;;;;23.75;14.77;;;8.60;99.90;;;;;;4900124;29;20036;-73
2023/12/30 12:29:04;;;;;;;20.23;13.68;;;8.70;99.90;;;;;;4900070;29;20040;-72
2023/12/30 12:31:30;;;;;;;14.23;9.35;;;8.60;99.90;;;;;;4896718;29;20050;-73
2023/12/30 12:33:56;;;;;;;12.23;8.02;;;8.70;99.90;;;;;;4897528;29;20051;-73
2023/12/30 12:36:22;;;;;;;18.50;7.18;;;8.70;99.90;;;;;;4896886;29;20028;-74
2023/12/30 12:38:50;;;;;;;10.07;5.88;;;8.60;99.90;;;;;;4897267;29;20365;-73
2023/12/30 12:41:15;;;;;;;10.57;5.65;;;8.70;99.90;;;;;;4899345;29;20433;-73
2023/12/30 12:43:41;;;;;;;10.95;6.25;;;8.80;99.90;;;;;;4900348;29;20032;-73
2023/12/30 12:46:08;;;;;;;15.90;5.10;;;8.80;99.90;;;;;;4899791;29;20060;-73